Terminal Aerodrome Forecast
Issued by NWS

Home | Current Version | Previous Version | Text Only | Print | Product List | Glossary On
Versions: 1 2 3 4 5 6 7 8 9 10 11 12
000
FTUS45 KRIW 251100
TAFWRL
TAF
KWRL 251140Z 2512/2612 19006KT P6SM BKN090
     FM251700 VRB05KT P6SM SCT100
     FM261000 VRB04KT P6SM VCFG FEW003=

USA.gov is the U.S. government's official web portal to all federal, state and local government web resources and services.